Time;durP1;ratioP1;P1;durP2;ratioP2;P2;SDS_P1;SDS_P2;PMS_P1;PMS_P2;Temp;Humidity;BMP_temperature;BMP_pressure;BME280_temperature;BME280_humidity;BME280_pressure;Samples;Min_cycle;Max_cycle;Signal;HPM_P1;HPM_P2
2022/10/25 00:01:15;;;;;;;10.32;2.38;;;;;;;13.94;84.81;101081.31;4802727;29;20030;-89
2022/10/25 00:03:41;;;;;;;9.77;2.15;;;;;;;13.95;84.69;101073.28;4785229;29;20034;-89
2022/10/25 00:06:09;;;;;;;7.47;2.20;;;;;;;13.91;84.55;101071.72;4804381;29;20390;-90
2022/10/25 00:08:34;;;;;;;12.52;2.42;;;;;;;13.90;84.61;101075.31;4796159;29;20031;-90
2022/10/25 00:11:00;;;;;;;6.88;2.00;;;;;;;13.98;84.25;101070.44;4779807;29;20435;-90
2022/10/25 00:13:25;;;;;;;7.45;2.33;;;;;;;13.98;84.35;101081.09;4780286;30;20038;-89
2022/10/25 00:15:50;;;;;;;8.40;2.30;;;;;;;13.96;84.50;101079.47;4771326;29;20041;-89
2022/10/25 00:18:15;;;;;;;12.57;2.97;;;;;;;14.02;84.51;101084.44;4775014;30;20058;-90
2022/10/25 00:20:41;;;;;;;6.55;2.00;;;;;;;14.01;84.52;101077.44;4777847;30;20037;-89
2022/10/25 00:23:06;;;;;;;8.27;1.85;;;;;;;14.11;84.68;101089.31;4778833;30;20509;-90
2022/10/25 00:25:31;;;;;;;6.70;1.98;;;;;;;14.16;84.08;101089.94;4780132;30;20031;-90
2022/10/25 00:27:56;;;;;;;8.52;2.15;;;;;;;14.14;84.15;101075.88;4775151;30;20035;-90
2022/10/25 00:30:22;;;;;;;9.07;2.75;;;;;;;14.26;83.89;101096.50;4777426;30;20434;-89
2022/10/25 00:32:51;;;;;;;11.70;2.33;;;;;;;14.16;84.13;101079.28;4778028;30;20753;-91
2022/10/25 00:35:16;;;;;;;10.77;2.42;;;;;;;14.20;84.13;101087.97;4779893;29;20418;-90
2022/10/25 00:37:42;;;;;;;8.80;2.50;;;;;;;14.29;83.32;101093.69;4758648;30;20039;-89
2022/10/25 00:40:07;;;;;;;6.90;2.05;;;;;;;14.30;83.37;101097.19;4771820;30;20114;-89
2022/10/25 00:42:34;;;;;;;8.43;1.95;;;;;;;14.26;83.17;101085.84;4774165;30;20427;-90
2022/10/25 00:45:01;;;;;;;10.85;2.40;;;;;;;14.36;83.54;101101.34;4783804;30;20142;-92
2022/10/25 00:47:39;;;;;;;5.60;2.03;;;;;;;14.37;83.17;101087.97;4765483;29;20028;-90
2022/10/25 00:50:12;;;;;;;8.57;2.50;;;;;;;14.50;82.91;101106.84;4766011;30;20381;-90
2022/10/25 00:52:39;;;;;;;6.57;2.20;;;;;;;14.45;83.23;101095.53;4777178;29;20641;-90
2022/10/25 00:55:06;;;;;;;8.88;2.20;;;;;;;14.49;82.85;101099.78;4773633;29;20446;-90
2022/10/25 00:57:36;;;;;;;9.27;2.15;;;;;;;14.50;82.55;101106.84;4773755;30;20435;-90
2022/10/25 01:00:04;;;;;;;7.82;2.10;;;;;;;14.49;82.64;101111.28;4780221;30;20031;-90
2022/10/25 01:02:30;;;;;;;11.30;1.92;;;;;;;14.43;82.62;101100.94;4784307;29;20035;-91
2022/10/25 01:04:55;;;;;;;6.97;2.20;;;;;;;14.41;82.81;101096.63;4773545;29;20506;-90
2022/10/25 01:07:21;;;;;;;9.73;2.05;;;;;;;14.41;82.68;101099.28;4774348;29;20027;-90
2022/10/25 01:09:46;;;;;;;6.85;1.95;;;;;;;14.44;82.57;101117.78;4779780;29;20044;-90
2022/10/25 01:12:11;;;;;;;10.73;1.98;;;;;;;14.35;83.00;101108.47;4783650;30;20024;-89
2022/10/25 01:14:41;;;;;;;8.75;2.20;;;;;;;14.38;82.64;101107.47;4772124;30;20518;-90
2022/10/25 01:17:25;;;;;;;7.78;2.15;;;;;;;14.43;82.49;101110.72;4773931;29;20039;-90
2022/10/25 01:20:10;;;;;;;7.00;2.15;;;;;;;14.42;82.30;101111.69;4763596;30;20449;-90
2022/10/25 01:22:52;;;;;;;5.75;1.73;;;;;;;14.34;82.38;101111.22;4776192;30;20130;-91
2022/10/25 01:25:43;;;;;;;9.25;1.98;;;;;;;14.45;82.00;101120.34;4779276;29;20087;-90
2022/10/25 01:28:56;;;;;;;9.07;1.75;;;;;;;14.42;82.51;101123.19;4772814;29;20042;-91
2022/10/25 01:32:09;;;;;;;9.80;2.95;;;;;;;14.54;81.58;101122.56;4769834;29;20040;-91
2022/10/25 01:34:44;;;;;;;11.25;1.90;;;;;;;14.50;81.93;101126.34;4711905;30;20043;-90
2022/10/25 01:37:16;;;;;;;4.35;1.90;;;;;;;14.52;82.07;101129.78;4760838;30;20392;-89
2022/10/25 01:39:52;;;;;;;7.47;1.48;;;;;;;14.54;82.27;101135.00;4771480;30;20528;-91
2022/10/25 01:42:45;;;;;;;10.85;1.75;;;;;;;14.61;82.10;101133.75;4773054;30;20031;-89
2022/10/25 01:45:29;;;;;;;7.50;1.92;;;;;;;14.63;82.04;101126.53;4771606;30;20565;-90
2022/10/25 01:48:35;;;;;;;9.07;2.17;;;;;;;14.62;81.82;101127.50;4772402;30;20480;-91
2022/10/25 01:51:09;;;;;;;10.32;1.90;;;;;;;14.55;82.22;101128.78;4681403;30;20037;-90
2022/10/25 01:53:49;;;;;;;7.18;1.67;;;;;;;14.56;82.11;101134.94;4696230;30;20046;-90
2022/10/25 01:56:22;;;;;;;3.92;1.55;;;;;;;14.56;81.79;101133.16;4744864;30;20119;-91
2022/10/25 01:59:19;;;;;;;11.13;2.25;;;;;;;14.45;82.41;101133.66;4779581;29;20520;-91
2022/10/25 02:02:27;;;;;;;5.78;1.95;;;;;;;14.49;82.24;101131.72;4787242;29;20091;-90
2022/10/25 02:05:16;;;;;;;8.70;1.98;;;;;;;14.42;82.15;101133.81;4776555;29;20027;-90
2022/10/25 02:08:03;;;;;;;10.55;2.00;;;;;;;14.40;82.46;101137.47;4776237;29;20040;-90
2022/10/25 02:10:36;;;;;;;12.90;2.15;;;;;;;14.25;82.59;101129.34;4777351;30;20041;-91
2022/10/25 02:13:17;;;;;;;8.77;1.83;;;;;;;14.25;82.89;101145.31;4788524;30;20523;-90
2022/10/25 02:16:09;;;;;;;6.43;2.15;;;;;;;14.26;82.67;101144.38;4776187;30;20434;-89
2022/10/25 02:18:38;;;;;;;9.02;2.00;;;;;;;14.23;82.92;101141.03;4775122;29;20112;-91
2022/10/25 02:21:05;;;;;;;8.77;1.73;;;;;;;14.26;82.37;101136.38;4793449;29;20062;-91
2022/10/25 02:23:34;;;;;;;7.68;1.52;;;;;;;14.27;82.97;101148.78;4795140;29;20034;-90
2022/10/25 02:26:02;;;;;;;7.80;1.75;;;;;;;14.23;82.95;101149.00;4799474;29;20031;-90
2022/10/25 02:28:28;;;;;;;9.25;1.95;;;;;;;14.25;82.61;101150.63;4794533;29;20027;-92
2022/10/25 02:30:57;;;;;;;6.20;1.98;;;;;;;14.14;82.73;101142.34;4771146;29;20042;-91
2022/10/25 02:33:22;;;;;;;8.98;1.73;;;;;;;14.11;82.74;101142.47;4794464;29;20035;-89
2022/10/25 02:36:15;;;;;;;10.50;2.15;;;;;;;14.13;82.30;101161.00;4799937;29;20088;-91
2022/10/25 02:38:42;;;;;;;6.20;2.13;;;;;;;14.00;82.96;101158.97;4775121;29;20115;-91
2022/10/25 02:41:08;;;;;;;10.70;2.22;;;;;;;13.94;83.20;101145.09;4776844;30;20075;-91
2022/10/25 02:43:33;;;;;;;13.15;2.53;;;;;;;13.94;83.38;101169.91;4787030;29;20127;-90
2022/10/25 02:46:04;;;;;;;8.02;2.50;;;;;;;13.99;83.35;101157.25;4796373;29;20035;-90
2022/10/25 02:48:29;;;;;;;9.98;2.33;;;;;;;13.92;83.89;101165.59;4783996;29;20026;-91
2022/10/25 02:50:55;;;;;;;10.68;2.63;;;;;;;13.95;83.68;101166.31;4777647;29;20047;-91
2022/10/25 02:53:20;;;;;;;9.27;2.17;;;;;;;13.97;83.76;101179.53;4802234;29;20038;-90
2022/10/25 02:55:45;;;;;;;6.75;1.98;;;;;;;14.03;82.99;101161.50;4796075;29;20110;-91
2022/10/25 02:58:10;;;;;;;8.32;2.20;;;;;;;13.97;83.55;101174.22;4799601;29;20043;-90
2022/10/25 03:00:36;;;;;;;9.25;2.47;;;;;;;14.00;83.18;101174.06;4794379;29;20496;-91
2022/10/25 03:03:01;;;;;;;8.18;1.90;;;;;;;13.94;83.56;101171.69;4800940;29;20039;-90
2022/10/25 03:05:26;;;;;;;9.43;2.28;;;;;;;13.94;83.11;101167.25;4795892;29;20066;-90
2022/10/25 03:07:51;;;;;;;6.18;2.10;;;;;;;14.03;83.11;101179.22;4793111;29;20492;-92
2022/10/25 03:10:17;;;;;;;8.07;2.60;;;;;;;13.93;83.05;101170.84;4779291;29;20361;-92
2022/10/25 03:12:42;;;;;;;5.07;2.00;;;;;;;13.89;83.30;101179.03;4783119;29;20031;-90
2022/10/25 03:15:08;;;;;;;5.40;1.90;;;;;;;13.78;83.64;101171.59;4796093;29;20492;-91
2022/10/25 03:17:33;;;;;;;6.35;2.05;;;;;;;13.87;83.31;101187.09;4792854;29;20035;-90
2022/10/25 03:19:59;;;;;;;8.43;2.20;;;;;;;13.78;83.89;101198.16;4780006;29;20077;-91
2022/10/25 03:22:24;;;;;;;3.80;1.70;;;;;;;13.77;83.72;101193.78;4784040;29;20058;-91
2022/10/25 03:24:49;;;;;;;12.45;2.30;;;;;;;13.85;83.82;101188.09;4796066;29;20027;-91
2022/10/25 03:27:16;;;;;;;10.95;2.05;;;;;;;13.93;83.78;101191.25;4793139;29;20027;-90
2022/10/25 03:29:41;;;;;;;8.18;2.22;;;;;;;13.92;83.50;101200.16;4779853;30;20488;-91
2022/10/25 03:32:07;;;;;;;6.30;1.73;;;;;;;13.87;83.10;101200.38;4775157;29;20030;-91
2022/10/25 03:34:33;;;;;;;11.75;2.28;;;;;;;13.82;83.40;101199.75;4796475;29;20412;-90
2022/10/25 03:36:58;;;;;;;6.47;1.90;;;;;;;13.80;83.16;101201.59;4774841;29;20053;-91
2022/10/25 03:39:23;;;;;;;7.47;2.78;;;;;;;13.89;83.06;101217.09;4776425;29;20107;-91
2022/10/25 03:41:49;;;;;;;7.93;2.17;;;;;;;13.64;83.40;101216.56;4798258;29;20130;-90
2022/10/25 03:44:14;;;;;;;7.60;1.90;;;;;;;13.58;83.64;101209.75;4780017;30;20480;-91
2022/10/25 03:46:39;;;;;;;8.30;2.10;;;;;;;13.60;83.57;101214.97;4782705;29;20030;-92
2022/10/25 03:49:06;;;;;;;9.85;2.25;;;;;;;13.61;83.63;101214.88;4770455;30;20047;-90
2022/10/25 03:51:31;;;;;;;7.20;1.88;;;;;;;13.60;83.38;101221.13;4799816;29;20173;-91
2022/10/25 03:53:56;;;;;;;6.10;2.03;;;;;;;13.55;83.80;101222.28;4779887;29;20766;-91
2022/10/25 03:56:22;;;;;;;8.82;2.28;;;;;;;13.57;83.75;101231.03;4797392;29;20027;-90
2022/10/25 03:58:47;;;;;;;4.97;2.30;;;;;;;13.57;84.10;101223.06;4778884;29;20404;-91
2022/10/25 04:01:12;;;;;;;8.13;2.40;;;;;;;13.64;83.95;101228.03;4779601;29;20382;-90
2022/10/25 04:03:38;;;;;;;5.18;2.03;;;;;;;13.55;84.15;101220.50;4796377;29;20104;-90
2022/10/25 04:06:03;;;;;;;5.22;2.05;;;;;;;13.50;84.44;101230.47;4788491;29;20065;-90
2022/10/25 04:08:28;;;;;;;10.95;2.63;;;;;;;13.53;84.38;101233.84;4796192;29;20119;-90
2022/10/25 04:10:54;;;;;;;8.68;2.83;;;;;;;13.66;83.96;101249.22;4792973;29;20038;-90
2022/10/25 04:13:19;;;;;;;5.90;2.30;;;;;;;13.61;84.33;101240.59;4796648;29;20031;-90
2022/10/25 04:15:44;;;;;;;8.25;2.20;;;;;;;13.71;84.15;101245.44;4786226;29;20027;-91
2022/10/25 04:18:09;;;;;;;5.85;2.58;;;;;;;13.62;84.40;101229.91;4774088;29;20142;-90
2022/10/25 04:20:35;;;;;;;3.50;1.88;;;;;;;13.64;83.93;101224.53;4777155;30;20049;-91
2022/10/25 04:23:00;;;;;;;7.60;2.35;;;;;;;13.62;84.34;101229.06;4777708;30;20476;-90
2022/10/25 04:25:27;;;;;;;8.85;2.35;;;;;;;13.62;84.40;101237.03;4780286;30;20035;-90
2022/10/25 04:27:52;;;;;;;5.32;2.10;;;;;;;13.57;84.31;101241.66;4775141;29;20063;-89
2022/10/25 04:30:18;;;;;;;6.25;2.13;;;;;;;13.53;84.21;101247.13;4775002;29;20066;-90
2022/10/25 04:32:43;;;;;;;8.27;2.33;;;;;;;13.53;84.60;101246.28;4774585;29;20067;-90
2022/10/25 04:35:09;;;;;;;8.60;2.55;;;;;;;13.43;84.27;101239.63;4773613;29;20582;-91
2022/10/25 04:37:34;;;;;;;7.82;2.10;;;;;;;13.55;83.85;101251.50;4770435;30;20123;-90
2022/10/25 04:39:59;;;;;;;6.20;3.03;;;;;;;13.50;84.76;101251.72;4775028;30;20080;-90
2022/10/25 04:42:25;;;;;;;6.78;2.70;;;;;;;13.47;84.15;101255.38;4782657;30;20126;-90
2022/10/25 04:44:50;;;;;;;7.97;2.70;;;;;;;13.52;84.23;101249.84;4772223;29;20611;-90
2022/10/25 04:47:15;;;;;;;7.28;2.85;;;;;;;13.41;84.34;101242.38;4779157;30;20038;-91
2022/10/25 04:49:40;;;;;;;6.10;2.28;;;;;;;13.42;84.62;101237.94;4768134;29;20481;-91
2022/10/25 04:52:06;;;;;;;8.80;3.03;;;;;;;13.47;84.30;101254.50;4777778;30;20039;-90
2022/10/25 04:54:31;;;;;;;9.63;2.53;;;;;;;13.41;84.40;101245.03;4772405;30;20040;-90
2022/10/25 04:56:56;;;;;;;8.60;2.88;;;;;;;13.34;84.89;101242.75;4779109;29;20404;-90
2022/10/25 04:59:21;;;;;;;7.10;2.60;;;;;;;13.34;84.37;101256.88;4779910;30;20042;-90
2022/10/25 05:01:47;;;;;;;10.45;2.50;;;;;;;13.35;84.66;101249.78;4776184;29;20043;-89
2022/10/25 05:04:12;;;;;;;9.13;3.00;;;;;;;13.32;85.00;101268.50;4773827;30;20042;-89
2022/10/25 05:06:37;;;;;;;6.05;2.85;;;;;;;13.25;84.96;101254.63;4778058;30;20031;-90
2022/10/25 05:09:03;;;;;;;8.05;2.70;;;;;;;13.26;84.81;101259.88;4773461;30;20412;-89
2022/10/25 05:11:29;;;;;;;7.78;2.80;;;;;;;13.16;85.49;101258.53;4783198;29;20027;-90
2022/10/25 05:13:54;;;;;;;8.95;2.83;;;;;;;13.20;85.46;101265.44;4772368;29;20035;-89
2022/10/25 05:16:23;;;;;;;6.72;2.85;;;;;;;13.19;85.77;101269.00;4785451;29;20061;-90
2022/10/25 05:18:50;;;;;;;5.20;2.88;;;;;;;13.18;85.61;101277.03;4771991;30;20466;-89
2022/10/25 05:21:16;;;;;;;5.97;3.10;;;;;;;13.15;85.49;101279.81;4778231;29;20060;-90
2022/10/25 05:23:42;;;;;;;7.22;3.15;;;;;;;13.09;85.13;101278.28;4779641;30;20050;-90
2022/10/25 05:26:12;;;;;;;11.00;3.25;;;;;;;13.10;85.91;101284.47;4767648;30;20107;-90
2022/10/25 05:28:39;;;;;;;8.18;2.75;;;;;;;13.05;85.13;101279.34;4782007;29;20560;-89
2022/10/25 05:31:04;;;;;;;6.40;3.25;;;;;;;13.09;85.31;101294.22;4782739;29;20035;-90
2022/10/25 05:33:30;;;;;;;10.20;3.03;;;;;;;13.03;85.56;101284.75;4783541;29;20068;-90
2022/10/25 05:35:59;;;;;;;9.95;2.83;;;;;;;13.03;85.56;101287.41;4778221;30;20186;-91
2022/10/25 05:38:24;;;;;;;6.72;2.75;;;;;;;12.98;85.48;101280.56;4755458;29;20038;-90
2022/10/25 05:40:58;;;;;;;9.35;3.08;;;;;;;13.00;86.08;101290.16;4779146;29;20020;-90
2022/10/25 05:43:24;;;;;;;8.05;2.67;;;;;;;13.01;85.60;101306.97;4774978;29;20031;-91
2022/10/25 05:45:50;;;;;;;8.52;3.08;;;;;;;12.94;85.94;101301.06;4779234;30;20049;-89
2022/10/25 05:48:17;;;;;;;9.38;3.03;;;;;;;13.00;86.02;101306.09;4773858;30;20051;-90
2022/10/25 05:50:43;;;;;;;5.00;2.40;;;;;;;13.00;86.03;101311.41;4776642;30;20038;-90
2022/10/25 05:53:08;;;;;;;7.07;2.58;;;;;;;13.00;85.88;101307.88;4781844;30;20117;-90
2022/10/25 05:55:34;;;;;;;6.50;3.10;;;;;;;13.02;86.02;101309.56;4778284;29;20805;-91
2022/10/25 05:57:59;;;;;;;6.15;2.90;;;;;;;12.93;86.17;101303.78;4775313;30;20096;-90
2022/10/25 06:00:25;;;;;;;9.07;2.95;;;;;;;12.98;86.02;101323.03;4785430;29;20031;-90
2022/10/25 06:02:50;;;;;;;8.40;3.05;;;;;;;12.93;86.06;101320.56;4788717;29;20069;-90
2022/10/25 06:05:15;;;;;;;9.05;3.17;;;;;;;12.96;86.36;101330.19;4780411;30;20393;-91
2022/10/25 06:07:41;;;;;;;7.32;3.10;;;;;;;12.94;85.59;101334.69;4781042;30;20031;-91
2022/10/25 06:10:06;;;;;;;8.45;3.53;;;;;;;12.93;85.99;101331.19;4773544;30;20036;-90
2022/10/25 06:12:31;;;;;;;9.07;3.42;;;;;;;12.99;85.50;101336.22;4770191;30;20032;-91
2022/10/25 06:14:57;;;;;;;9.88;3.58;;;;;;;12.98;85.36;101333.66;4780000;30;20028;-91
2022/10/25 06:17:22;;;;;;;10.32;3.70;;;;;;;12.95;85.87;101329.31;4782960;29;20035;-91
2022/10/25 06:19:47;;;;;;;6.40;3.47;;;;;;;12.93;85.71;101335.63;4794785;29;20396;-90
2022/10/25 06:22:12;;;;;;;7.82;4.00;;;;;;;12.96;86.42;101343.44;4778970;29;20035;-90
2022/10/25 06:24:38;;;;;;;9.88;4.80;;;;;;;12.91;86.14;101337.47;4784171;29;20027;-92
2022/10/25 06:27:03;;;;;;;9.60;4.47;;;;;;;12.93;86.14;101340.94;4804565;29;20118;-90
2022/10/25 06:29:28;;;;;;;12.43;4.97;;;;;;;13.00;85.95;101353.00;4778230;29;20038;-90
2022/10/25 06:31:54;;;;;;;12.10;5.00;;;;;;;13.03;85.75;101348.44;4804830;29;20031;-90
2022/10/25 06:34:19;;;;;;;13.27;5.20;;;;;;;13.08;84.96;101348.25;4800119;29;20084;-90
2022/10/25 06:36:45;;;;;;;12.27;4.53;;;;;;;13.17;85.15;101357.63;4781688;29;20027;-91
2022/10/25 06:39:10;;;;;;;14.05;4.93;;;;;;;13.19;84.91;101369.88;4767355;29;20041;-91
2022/10/25 06:41:35;;;;;;;11.70;5.95;;;;;;;13.17;85.24;101361.13;4780818;29;20453;-90
2022/10/25 06:44:00;;;;;;;10.07;4.57;;;;;;;13.17;84.84;101358.47;4799044;29;20031;-90
2022/10/25 06:46:34;;;;;;;16.20;4.88;;;;;;;13.28;84.78;101385.47;4783665;29;20126;-90
2022/10/25 06:49:03;;;;;;;15.07;4.57;;;;;;;13.34;85.13;101379.03;4787663;29;20058;-91
2022/10/25 06:51:28;;;;;;;14.15;5.35;;;;;;;13.35;85.24;101372.78;4792695;29;20540;-91
2022/10/25 06:53:59;;;;;;;10.38;4.65;;;;;;;13.43;84.76;101376.00;4798047;29;20035;-91
2022/10/25 06:56:26;;;;;;;10.55;5.85;;;;;;;13.52;84.65;101372.94;4799522;29;20506;-91
2022/10/25 06:58:51;;;;;;;11.77;5.30;;;;;;;13.45;84.36;101376.78;4795906;29;20035;-90
2022/10/25 07:01:18;;;;;;;10.43;5.35;;;;;;;13.62;84.17;101380.50;4790997;29;20046;-91
2022/10/25 07:03:45;;;;;;;12.43;5.28;;;;;;;13.60;83.93;101385.84;4779515;29;20030;-92
2022/10/25 07:06:15;;;;;;;14.00;5.70;;;;;;;13.50;84.07;101373.91;4776669;29;20031;-90
2022/10/25 07:08:42;;;;;;;15.05;5.35;;;;;;;13.57;84.11;101390.44;4796314;29;20039;-90
2022/10/25 07:11:16;;;;;;;9.52;4.70;;;;;;;13.62;83.93;101401.75;4778125;29;20109;-91
2022/10/25 07:13:42;;;;;;;11.43;5.30;;;;;;;13.62;83.71;101394.66;4797579;29;20033;-91
2022/10/25 07:16:09;;;;;;;11.35;5.13;;;;;;;13.63;83.89;101414.09;4776936;29;20539;-90
2022/10/25 07:18:35;;;;;;;13.65;5.75;;;;;;;13.54;84.19;101410.03;4778290;30;20051;-92
2022/10/25 07:21:04;;;;;;;15.77;5.30;;;;;;;13.57;84.03;101415.25;4802731;29;20114;-90
2022/10/25 07:23:30;;;;;;;12.43;5.68;;;;;;;13.55;84.38;101403.78;4778327;30;20519;-90
2022/10/25 07:25:56;;;;;;;11.60;5.88;;;;;;;13.64;84.39;101398.09;4799563;29;20187;-90
2022/10/25 07:28:21;;;;;;;17.40;5.90;;;;;;;13.75;83.50;101411.75;4797664;29;20035;-90
2022/10/25 07:30:47;;;;;;;12.82;5.40;;;;;;;13.90;83.38;101425.31;4792387;29;20096;-91
2022/10/25 07:33:14;;;;;;;15.02;5.85;;;;;;;13.92;83.62;101423.44;4799935;29;20061;-91
2022/10/25 07:35:39;;;;;;;12.73;5.00;;;;;;;14.03;82.80;101416.72;4792934;29;20115;-90
2022/10/25 07:38:04;;;;;;;8.98;5.10;;;;;;;14.03;82.89;101423.81;4762361;30;20499;-92
2022/10/25 07:40:30;;;;;;;11.02;5.38;;;;;;;14.00;83.02;101418.66;4796893;29;20428;-82
2022/10/25 07:42:55;;;;;;;12.57;5.95;;;;;;;14.02;83.27;101424.75;4800065;29;20039;-82
2022/10/25 07:45:20;;;;;;;15.82;5.90;;;;;;;14.11;83.23;101427.00;4792644;29;20501;-82
2022/10/25 07:47:46;;;;;;;11.65;5.00;;;;;;;14.19;82.38;101430.16;4794358;29;20036;-83
2022/10/25 07:50:11;;;;;;;11.20;5.32;;;;;;;14.20;82.00;101428.38;4787044;29;20114;-82
2022/10/25 07:52:36;;;;;;;9.30;4.43;;;;;;;14.33;81.75;101431.34;4796167;29;20106;-83
2022/10/25 07:55:01;;;;;;;10.93;5.45;;;;;;;14.30;81.60;101429.66;4776311;29;20038;-82
2022/10/25 07:57:26;;;;;;;13.75;5.65;;;;;;;14.29;81.52;101418.16;4778573;29;20508;-83
2022/10/25 07:59:52;;;;;;;13.30;5.65;;;;;;;14.31;81.74;101436.69;4798907;29;20027;-83
2022/10/25 08:02:17;;;;;;;10.50;5.32;;;;;;;14.41;81.26;101434.47;4795642;29;20484;-82
2022/10/25 08:04:43;;;;;;;13.65;5.88;;;;;;;14.44;81.66;101431.69;4797199;29;20031;-82
2022/10/25 08:07:08;;;;;;;10.90;5.55;;;;;;;14.43;81.15;101445.94;4795786;29;20107;-82
2022/10/25 08:09:33;;;;;;;15.23;6.05;;;;;;;14.53;81.38;101442.78;4776095;29;20033;-82
2022/10/25 08:11:58;;;;;;;13.35;5.25;;;;;;;14.57;80.59;101447.97;4796492;29;20096;-83
2022/10/25 08:14:24;;;;;;;7.32;3.92;;;;;;;14.61;80.68;101453.09;4801238;29;20039;-83
2022/10/25 08:16:49;;;;;;;9.13;5.28;;;;;;;14.64;80.82;101458.28;4795239;29;20322;-82
2022/10/25 08:19:14;;;;;;;9.68;4.85;;;;;;;14.67;81.00;101451.94;4791961;29;20050;-83
2022/10/25 08:21:39;;;;;;;11.82;5.95;;;;;;;14.75;79.95;101455.94;4799903;29;20031;-82
2022/10/25 08:24:05;;;;;;;12.00;5.63;;;;;;;14.83;79.35;101460.03;4798293;29;20488;-82
2022/10/25 08:26:30;;;;;;;13.15;6.10;;;;;;;14.84;79.65;101461.78;4778654;29;20023;-83
2022/10/25 08:28:55;;;;;;;12.57;5.75;;;;;;;14.77;79.25;101461.19;4791615;29;20511;-83
2022/10/25 08:31:21;;;;;;;16.27;5.93;;;;;;;14.83;79.66;101465.34;4800033;29;20038;-83
2022/10/25 08:33:46;;;;;;;14.40;5.32;;;;;;;14.84;79.83;101467.97;4788624;29;20118;-83
2022/10/25 08:36:12;;;;;;;14.70;5.07;;;;;;;14.84;79.79;101459.97;4795847;29;20031;-82
2022/10/25 08:38:37;;;;;;;10.57;5.53;;;;;;;14.88;79.21;101463.38;4788616;29;20316;-83
2022/10/25 08:41:27;;;;;;;11.38;6.25;;;;;;;15.11;79.38;101460.44;4794510;29;20038;-83
2022/10/25 08:43:55;;;;;;;12.85;5.68;;;;;;;15.26;78.34;101467.66;4785724;29;20066;-83
2022/10/25 08:46:26;;;;;;;9.95;4.90;;;;;;;15.37;77.62;101461.78;4782146;29;20068;-83
2022/10/25 08:49:08;;;;;;;13.63;5.00;;;;;;;15.70;76.92;101472.56;4801152;29;20495;-83
2022/10/25 08:51:39;;;;;;;7.93;4.18;;;;;;;15.67;76.44;101470.09;4799487;29;20640;-83
2022/10/25 08:54:18;;;;;;;10.85;5.05;;;;;;;15.57;76.23;101466.09;4786898;29;20106;-83
2022/10/25 08:56:44;;;;;;;9.20;4.20;;;;;;;15.71;75.42;101462.75;4797509;29;20035;-83
2022/10/25 08:59:19;;;;;;;8.68;4.53;;;;;;;17.23;70.95;101456.19;4796915;29;20064;-83
2022/10/25 09:01:53;;;;;;;7.70;4.65;;;;;;;18.33;68.36;101475.47;4792266;29;20512;-83
2022/10/25 09:04:20;;;;;;;7.15;3.72;;;;;;;18.11;66.31;101473.25;4797062;29;20524;-83
2022/10/25 09:07:13;;;;;;;7.13;3.97;;;;;;;19.05;66.69;101489.63;4786514;29;20034;-83
2022/10/25 09:09:56;;;;;;;7.00;3.50;;;;;;;19.19;64.81;101491.41;4791498;29;20042;-83
2022/10/25 09:12:33;;;;;;;9.32;4.45;;;;;;;19.00;64.95;101487.25;4792816;29;20030;-83
2022/10/25 09:15:32;;;;;;;4.93;3.13;;;;;;;18.96;64.39;101484.88;4795158;29;20479;-83
2022/10/25 09:18:02;;;;;;;7.25;3.70;;;;;;;18.20;65.99;101498.59;4779738;29;20116;-83
2022/10/25 09:20:35;;;;;;;8.43;3.60;;;;;;;17.91;67.32;101498.56;4794216;29;20110;-83
2022/10/25 09:23:22;;;;;;;7.43;4.10;;;;;;;17.53;68.86;101501.69;4799644;29;20391;-83
2022/10/25 09:26:01;;;;;;;9.23;4.15;;;;;;;17.48;69.52;101493.03;4791191;29;20037;-83
2022/10/25 09:28:49;;;;;;;7.57;3.53;;;;;;;17.15;69.16;101509.22;4790957;29;20042;-83
2022/10/25 09:31:20;;;;;;;8.57;3.70;;;;;;;16.80;70.52;101495.19;4786591;29;20030;-83
2022/10/25 09:33:47;;;;;;;8.00;3.13;;;;;;;16.76;70.65;101507.84;4799807;29;20062;-83
2022/10/25 09:36:14;;;;;;;7.72;3.65;;;;;;;16.90;70.69;101509.75;4778787;29;20433;-83
2022/10/25 09:38:45;;;;;;;11.43;3.88;;;;;;;17.14;70.18;101507.50;4759283;30;20476;-83
2022/10/25 09:41:20;;;;;;;9.23;4.22;;;;;;;17.59;68.84;101512.00;4785924;29;20030;-83
2022/10/25 09:43:59;;;;;;;14.55;3.95;;;;;;;17.53;69.65;101514.16;4789853;29;20046;-83
2022/10/25 09:46:33;;;;;;;3.95;3.20;;;;;;;17.55;69.95;101510.47;4786587;29;20030;-83
2022/10/25 09:49:07;;;;;;;10.55;3.40;;;;;;;18.67;65.15;101511.69;4792384;29;20062;-83
2022/10/25 09:51:58;;;;;;;13.05;3.90;;;;;;;18.41;66.99;101515.13;4800658;29;20030;-84
2022/10/25 09:54:37;;;;;;;11.47;3.47;;;;;;;18.02;67.24;101521.97;4783667;29;20023;-83
2022/10/25 09:57:03;;;;;;;7.30;3.55;;;;;;;17.45;68.28;101525.31;4774434;30;20040;-83
2022/10/25 09:59:28;;;;;;;10.55;3.25;;;;;;;17.18;69.88;101521.56;4796934;29;20506;-83
2022/10/25 10:01:54;;;;;;;8.23;3.45;;;;;;;16.95;70.37;101523.72;4798340;29;20044;-83
2022/10/25 10:04:26;;;;;;;9.35;3.10;;;;;;;16.89;69.86;101526.72;4797049;29;20033;-84
2022/10/25 10:06:56;;;;;;;7.93;2.90;;;;;;;16.75;69.90;101524.81;4776310;29;20042;-83
2022/10/25 10:09:24;;;;;;;10.10;4.15;;;;;;;16.73;70.44;101536.53;4772763;30;20103;-82
2022/10/25 10:11:52;;;;;;;10.13;3.15;;;;;;;17.04;70.80;101530.34;4791560;29;20117;-83
2022/10/25 10:14:43;;;;;;;7.10;3.08;;;;;;;17.55;68.97;101533.66;4788354;29;20042;-83
2022/10/25 10:17:14;;;;;;;6.40;2.95;;;;;;;17.55;68.29;101536.34;4794356;29;20042;-83
2022/10/25 10:19:40;;;;;;;8.18;2.80;;;;;;;17.42;68.48;101529.97;4782682;29;20301;-83
2022/10/25 10:22:08;;;;;;;9.75;3.03;;;;;;;17.28;68.69;101533.44;4784621;29;20534;-83
2022/10/25 10:24:36;;;;;;;6.70;2.75;;;;;;;17.14;69.65;101536.88;4782995;30;20484;-83
2022/10/25 10:27:21;;;;;;;10.48;3.15;;;;;;;17.12;69.98;101544.16;4800978;29;20031;-83
2022/10/25 10:30:01;;;;;;;9.15;2.90;;;;;;;16.94;70.25;101540.69;4780166;29;20042;-83
2022/10/25 10:32:32;;;;;;;5.70;3.33;;;;;;;16.79;70.81;101536.22;4792421;29;20158;-83
2022/10/25 10:34:57;;;;;;;11.25;3.47;;;;;;;16.76;71.02;101547.03;4806167;29;20491;-83
2022/10/25 10:37:31;;;;;;;12.30;3.28;;;;;;;16.74;70.67;101540.91;4782214;29;20030;-83
2022/10/25 10:40:24;;;;;;;9.88;3.20;;;;;;;16.67;71.04;101551.03;4794362;29;20035;-83
2022/10/25 10:42:49;;;;;;;10.25;3.03;;;;;;;16.66;70.80;101543.97;4780382;29;20100;-83
2022/10/25 10:45:17;;;;;;;8.05;3.33;;;;;;;16.75;71.90;101553.34;4798445;29;20472;-84
2022/10/25 10:47:48;;;;;;;11.95;3.33;;;;;;;16.92;71.21;101557.72;4797290;29;20451;-83
2022/10/25 10:50:19;;;;;;;7.50;3.03;;;;;;;16.93;70.65;101557.66;4772387;29;20122;-83
2022/10/25 10:52:46;;;;;;;6.78;2.80;;;;;;;16.93;70.34;101556.81;4779574;29;20142;-83
2022/10/25 10:55:24;;;;;;;9.00;3.35;;;;;;;16.86;70.67;101553.59;4794047;29;20031;-83
2022/10/25 10:57:52;;;;;;;5.22;2.40;;;;;;;16.95;69.51;101555.75;4792244;29;20561;-83
2022/10/25 11:00:24;;;;;;;6.70;2.33;;;;;;;16.99;69.62;101553.78;4794443;29;20059;-84
2022/10/25 11:02:49;;;;;;;10.63;2.63;;;;;;;17.06;69.57;101555.16;4800334;29;20046;-83
2022/10/25 11:05:28;;;;;;;9.02;2.97;;;;;;;17.19;69.55;101555.34;4795159;29;20106;-83
2022/10/25 11:07:56;;;;;;;7.80;2.83;;;;;;;17.39;68.28;101556.88;4797169;29;20023;-83
2022/10/25 11:10:27;;;;;;;10.45;3.00;;;;;;;17.57;67.57;101550.47;4793260;29;20035;-84
2022/10/25 11:13:11;;;;;;;8.20;2.55;;;;;;;17.79;66.89;101555.47;4782931;30;20114;-83
2022/10/25 11:15:55;;;;;;;7.28;2.33;;;;;;;18.63;64.48;101553.00;4799091;29;20796;-84
2022/10/25 11:18:32;;;;;;;6.43;2.45;;;;;;;18.79;64.20;101560.97;4776524;30;20055;-83
2022/10/25 11:21:12;;;;;;;7.78;2.67;;;;;;;18.64;63.67;101552.03;4774839;29;20106;-84
2022/10/25 11:24:19;;;;;;;7.90;2.67;;;;;;;18.53;64.36;101555.41;4786703;29;20039;-84
2022/10/25 11:26:52;;;;;;;7.75;3.05;;;;;;;18.90;62.47;101561.16;4765385;29;20107;-84
2022/10/25 11:29:38;;;;;;;10.30;2.85;;;;;;;19.91;60.89;101556.34;4775062;29;20045;-84
2022/10/25 11:32:29;;;;;;;6.80;2.60;;;;;;;20.83;60.67;101556.19;4781824;29;20400;-83
2022/10/25 11:35:10;;;;;;;7.60;1.98;;;;;;;22.53;55.12;101549.63;4754671;29;20104;-83